createdAt,value
2018-07-12T00:02:13.262Z,22.37
2018-07-12T00:04:40.977Z,22.40
2018-07-12T00:07:08.611Z,22.41
2018-07-12T00:09:36.169Z,22.43
2018-07-12T00:12:03.704Z,22.45
2018-07-12T00:14:32.140Z,22.46
2018-07-12T00:16:59.769Z,22.49
2018-07-12T00:19:27.316Z,22.50
2018-07-12T00:21:55.658Z,22.51
2018-07-12T00:24:23.225Z,22.54
2018-07-12T00:26:50.881Z,22.55
2018-07-12T00:29:18.744Z,22.56
2018-07-12T00:31:46.751Z,22.55
2018-07-12T00:34:14.563Z,22.58
2018-07-12T00:36:42.329Z,22.59
2018-07-12T00:39:11.757Z,22.60
2018-07-12T00:41:40.032Z,22.62
2018-07-12T00:44:07.758Z,22.61
2018-07-12T00:46:35.699Z,22.61
2018-07-12T00:49:03.350Z,22.62
2018-07-12T00:51:31.497Z,22.63
2018-07-12T00:53:59.301Z,22.63
2018-07-12T00:56:26.883Z,22.65
2018-07-12T00:58:54.753Z,22.64
2018-07-12T01:01:22.553Z,22.65
2018-07-12T01:03:50.267Z,22.64
2018-07-12T01:06:19.571Z,22.63
2018-07-12T01:08:47.346Z,22.62
2018-07-12T01:11:16.638Z,22.60
2018-07-12T01:13:45.443Z,22.58
2018-07-12T01:16:13.409Z,22.58
2018-07-12T01:18:41.208Z,22.57
2018-07-12T01:21:08.986Z,22.55
2018-07-12T01:23:36.612Z,22.55
2018-07-12T01:26:04.611Z,22.54
2018-07-12T01:28:32.173Z,22.53
2018-07-12T01:31:00.267Z,22.50
2018-07-12T01:33:28.175Z,22.46
2018-07-12T01:35:56.286Z,22.44
2018-07-12T01:38:24.900Z,22.42
2018-07-12T01:40:52.594Z,22.41
2018-07-12T01:43:20.224Z,22.39
2018-07-12T01:45:47.945Z,22.36
2018-07-12T01:48:15.610Z,22.35
2018-07-12T01:50:43.410Z,22.32
2018-07-12T01:53:11.343Z,22.31
2018-07-12T01:55:40.824Z,22.31
2018-07-12T01:58:09.054Z,22.30
2018-07-12T02:00:37.647Z,22.31
2018-07-12T02:03:05.247Z,22.31
2018-07-12T02:05:32.904Z,22.30
2018-07-12T02:08:00.607Z,22.29
2018-07-12T02:10:28.251Z,22.29
2018-07-12T02:12:55.901Z,22.28
2018-07-12T02:15:24.225Z,22.30
2018-07-12T02:17:52.717Z,22.27
2018-07-12T02:20:20.851Z,22.27
2018-07-12T02:22:48.646Z,22.26
2018-07-12T02:25:16.627Z,22.24
2018-07-12T02:27:45.281Z,22.25
2018-07-12T02:30:13.412Z,22.23
2018-07-12T02:32:41.384Z,22.24
2018-07-12T02:35:09.338Z,22.25
2018-07-12T02:37:37.191Z,22.26
2018-07-12T02:40:05.007Z,22.25
2018-07-12T02:42:32.627Z,22.28
2018-07-12T02:45:00.472Z,22.28
2018-07-12T02:47:28.217Z,22.29
2018-07-12T02:49:56.336Z,22.29
2018-07-12T02:52:24.360Z,22.28
2018-07-12T02:54:53.963Z,22.27
2018-07-12T02:57:21.627Z,22.23
2018-07-12T02:59:49.303Z,22.24
2018-07-12T03:02:17.045Z,22.22
2018-07-12T03:04:44.680Z,22.20
2018-07-12T03:07:13.422Z,22.20
2018-07-12T03:09:41.038Z,22.19
2018-07-12T03:12:08.643Z,22.18
2018-07-12T03:14:36.256Z,22.17
2018-07-12T03:17:03.912Z,22.13
2018-07-12T03:19:31.705Z,22.10
2018-07-12T03:22:00.626Z,22.09
2018-07-12T03:24:28.476Z,22.07
2018-07-12T03:26:56.380Z,22.02
2018-07-12T03:29:23.997Z,22.00
2018-07-12T03:31:52.085Z,22.00
2018-07-12T03:34:20.229Z,21.99
2018-07-12T03:36:47.977Z,21.98
2018-07-12T03:39:16.386Z,21.99
2018-07-12T03:41:44.869Z,21.99
2018-07-12T03:44:13.037Z,21.96
2018-07-12T03:46:41.077Z,21.95
2018-07-12T03:49:09.372Z,21.92
2018-07-12T03:51:38.805Z,21.91
2018-07-12T03:54:06.489Z,21.89
2018-07-12T03:56:34.397Z,21.87
2018-07-12T03:59:02.416Z,21.85
2018-07-12T04:01:30.408Z,21.86
2018-07-12T04:03:58.573Z,21.90
2018-07-12T04:06:26.392Z,21.91
2018-07-12T04:08:54.592Z,21.93
2018-07-12T04:11:23.333Z,21.95
2018-07-12T04:13:51.924Z,21.96
2018-07-12T04:16:19.655Z,21.97
2018-07-12T04:18:47.710Z,21.98
2018-07-12T04:21:15.393Z,22.01
2018-07-12T04:23:43.973Z,22.03
2018-07-12T04:26:11.615Z,22.07
2018-07-12T04:28:39.490Z,22.07
2018-07-12T04:31:07.174Z,22.10
2018-07-12T04:33:35.467Z,22.13
2018-07-12T04:36:03.728Z,22.14
2018-07-12T04:38:32.644Z,22.15
2018-07-12T04:41:02.388Z,22.16
2018-07-12T04:43:30.304Z,22.14
2018-07-12T04:45:58.808Z,22.13
2018-07-12T04:48:26.669Z,22.14
2018-07-12T04:50:54.777Z,22.16
2018-07-12T04:53:22.833Z,22.17
2018-07-12T04:55:50.511Z,22.15
2018-07-12T04:58:18.229Z,22.14
2018-07-12T05:00:45.793Z,22.11
2018-07-12T05:03:13.577Z,22.08
2018-07-12T05:05:41.149Z,22.06
2018-07-12T05:08:09.949Z,22.05
2018-07-12T05:10:37.610Z,22.06
2018-07-12T05:13:05.347Z,22.04
2018-07-12T05:15:33.036Z,22.01
2018-07-12T05:18:00.657Z,22.03
2018-07-12T05:20:28.357Z,22.02
2018-07-12T05:22:56.334Z,22.05
2018-07-12T05:25:24.853Z,22.01
2018-07-12T05:27:52.753Z,22.03
2018-07-12T05:30:20.349Z,22.03
2018-07-12T05:32:48.335Z,22.02
2018-07-12T05:35:16.926Z,22.03
2018-07-12T05:37:47.621Z,22.03
2018-07-12T05:40:17.618Z,22.05
2018-07-12T05:42:47.654Z,22.07
2018-07-12T05:45:18.068Z,22.09
2018-07-12T05:47:48.255Z,22.12
2018-07-12T05:50:17.600Z,22.15
2018-07-12T05:52:47.791Z,22.19
2018-07-12T05:55:17.680Z,22.26
2018-07-12T05:57:48.270Z,22.31
2018-07-12T06:00:19.762Z,22.37
2018-07-12T06:02:51.380Z,22.45
2018-07-12T06:05:23.483Z,22.55
2018-07-12T06:07:54.130Z,22.66
2018-07-12T06:10:26.565Z,22.81
2018-07-12T06:12:56.421Z,22.97
2018-07-12T06:15:27.670Z,23.10
2018-07-12T06:18:04.689Z,23.25
2018-07-12T06:20:34.573Z,23.37
2018-07-12T06:23:05.235Z,23.49
2018-07-12T06:25:37.834Z,23.58
2018-07-12T06:28:07.845Z,23.64
2018-07-12T06:30:37.512Z,23.74
2018-07-12T06:33:07.207Z,23.85
2018-07-12T06:35:37.748Z,23.97
2018-07-12T06:38:07.019Z,24.06
2018-07-12T06:40:36.747Z,24.15
2018-07-12T06:43:06.540Z,24.33
2018-07-12T06:45:36.375Z,24.47
2018-07-12T06:48:06.081Z,24.55
2018-07-12T06:50:35.307Z,24.61
2018-07-12T06:53:05.273Z,24.70
2018-07-12T06:55:34.996Z,24.94
2018-07-12T07:00:41.367Z,25.48
2018-07-12T07:03:11.712Z,25.80
2018-07-12T07:05:41.112Z,26.33
2018-07-12T07:08:11.166Z,26.73
2018-07-12T07:10:41.409Z,27.01
2018-07-12T07:13:11.249Z,27.08
2018-07-12T07:15:40.671Z,27.17
2018-07-12T07:18:10.815Z,27.34
2018-07-12T07:20:40.228Z,27.71
2018-07-12T07:23:10.165Z,28.19
2018-07-12T07:25:39.711Z,28.58
2018-07-12T07:28:10.894Z,28.75
2018-07-12T07:30:40.153Z,28.88
2018-07-12T07:33:10.568Z,28.96
2018-07-12T07:35:40.577Z,28.90
2018-07-12T07:38:10.542Z,28.80
2018-07-12T07:40:39.725Z,28.70
2018-07-12T07:43:09.648Z,28.81
2018-07-12T07:45:39.297Z,29.11
2018-07-12T07:48:11.312Z,29.38
2018-07-12T07:50:42.068Z,29.41
2018-07-12T07:53:11.736Z,29.28
2018-07-12T07:55:40.756Z,29.36
2018-07-12T07:58:09.962Z,29.47
2018-07-12T08:00:39.045Z,29.60
2018-07-12T08:03:08.856Z,29.64
2018-07-12T08:05:38.243Z,29.54
2018-07-12T08:08:07.674Z,29.44
2018-07-12T08:10:36.959Z,29.31
2018-07-12T08:13:06.050Z,29.22
2018-07-12T08:15:35.359Z,29.37
2018-07-12T08:18:04.472Z,29.77
2018-07-12T08:20:33.574Z,30.26
2018-07-12T08:23:02.613Z,30.53
2018-07-12T08:25:31.773Z,30.97
2018-07-12T08:28:19.517Z,31.33
2018-07-12T08:30:48.603Z,31.41
2018-07-12T08:33:17.427Z,31.36
2018-07-12T08:35:46.417Z,31.42
2018-07-12T08:38:16.060Z,31.34
2018-07-12T08:40:45.432Z,31.12
2018-07-12T08:43:15.179Z,30.82
2018-07-12T08:45:45.386Z,30.57
2018-07-12T08:48:15.701Z,30.48
2018-07-12T08:50:45.118Z,30.57
2018-07-12T08:53:15.781Z,30.65
2018-07-12T08:55:47.739Z,30.83
2018-07-12T08:58:17.854Z,31.19
2018-07-12T09:00:48.161Z,31.74
2018-07-12T09:03:18.402Z,32.11
2018-07-12T09:05:48.382Z,32.04
2018-07-12T09:08:18.188Z,32.05
2018-07-12T09:10:48.192Z,32.14
2018-07-12T09:13:17.452Z,32.25
2018-07-12T09:15:47.576Z,32.41
2018-07-12T09:18:17.476Z,32.54
2018-07-12T09:20:47.924Z,32.80
2018-07-12T09:23:17.719Z,33.12
2018-07-12T09:25:47.244Z,33.24
2018-07-12T09:28:16.905Z,33.07
2018-07-12T09:30:46.876Z,32.58
2018-07-12T09:33:16.174Z,32.12
2018-07-12T09:35:45.862Z,31.99
2018-07-12T09:38:35.068Z,32.24
2018-07-12T09:41:06.800Z,32.77
2018-07-12T09:43:36.643Z,33.18
2018-07-12T09:46:08.445Z,33.11
2018-07-12T09:48:40.779Z,32.74
2018-07-12T09:51:11.800Z,32.29
2018-07-12T09:53:43.026Z,31.98
2018-07-12T09:56:13.216Z,32.04
2018-07-12T09:58:42.978Z,32.19
2018-07-12T10:01:18.092Z,32.16
2018-07-12T10:03:50.313Z,31.98
2018-07-12T10:06:26.279Z,31.73
2018-07-12T10:08:56.174Z,31.54
2018-07-12T10:11:32.268Z,31.61
2018-07-12T10:14:07.359Z,31.78
2018-07-12T10:16:42.167Z,31.99
2018-07-12T10:19:11.976Z,32.36
2018-07-12T10:21:42.122Z,32.71
2018-07-12T10:24:11.913Z,33.02
2018-07-12T10:26:42.795Z,33.22
2018-07-12T10:29:11.803Z,33.23
2018-07-12T10:31:43.164Z,33.22
2018-07-12T10:34:13.009Z,33.39
2018-07-12T10:36:43.369Z,33.59
2018-07-12T10:39:14.239Z,33.68
2018-07-12T10:41:44.142Z,33.63
2018-07-12T10:44:14.355Z,33.45
2018-07-12T10:46:44.627Z,33.06
2018-07-12T10:49:15.202Z,32.79
2018-07-12T10:51:45.254Z,32.78
2018-07-12T10:54:17.036Z,32.86
2018-07-12T10:56:47.641Z,32.88
2018-07-12T10:59:17.405Z,33.02
2018-07-12T11:01:47.665Z,33.25
2018-07-12T11:04:17.440Z,33.39
2018-07-12T11:06:46.965Z,33.43
2018-07-12T11:09:16.619Z,33.59
2018-07-12T11:11:46.953Z,33.69
2018-07-12T11:14:18.430Z,33.80
2018-07-12T11:16:48.427Z,34.01
2018-07-12T11:19:20.379Z,33.97
2018-07-12T11:21:50.976Z,33.71
2018-07-12T11:24:22.350Z,33.41
2018-07-12T11:26:54.234Z,33.12
2018-07-12T11:29:56.221Z,32.86
2018-07-12T11:32:25.979Z,32.73
2018-07-12T11:34:56.761Z,32.77
2018-07-12T11:37:27.657Z,32.89
2018-07-12T11:39:59.659Z,33.05
2018-07-12T11:42:32.113Z,33.19
2018-07-12T11:45:02.415Z,33.23
2018-07-12T11:47:31.889Z,33.22
2018-07-12T11:50:02.761Z,33.22
2018-07-12T11:52:34.973Z,33.23
2018-07-12T11:55:05.259Z,33.26
2018-07-12T11:57:37.495Z,33.21
2018-07-12T12:00:09.218Z,33.17
2018-07-12T12:02:40.469Z,33.08
2018-07-12T12:05:12.206Z,32.96
2018-07-12T12:07:42.690Z,32.81
2018-07-12T12:10:15.185Z,32.62
2018-07-12T12:12:46.085Z,32.36
2018-07-12T12:15:17.781Z,32.04
2018-07-12T12:17:48.081Z,31.91
2018-07-12T12:20:18.642Z,31.86
2018-07-12T12:22:48.336Z,31.88
2018-07-12T12:25:21.840Z,31.88
2018-07-12T12:27:54.780Z,31.92
2018-07-12T12:30:24.910Z,31.99
2018-07-12T12:32:55.773Z,32.05
2018-07-12T12:35:33.356Z,32.03
2018-07-12T12:38:03.512Z,31.99
2018-07-12T12:40:35.089Z,32.04
2018-07-12T12:43:05.162Z,32.11
2018-07-12T12:45:35.644Z,32.18
2018-07-12T12:48:07.053Z,32.27
2018-07-12T12:50:37.959Z,32.30
2018-07-12T12:53:09.422Z,32.26
2018-07-12T12:55:41.398Z,32.08
2018-07-12T12:58:11.592Z,31.86
2018-07-12T13:00:41.618Z,31.63
2018-07-12T13:03:14.283Z,31.53
2018-07-12T13:05:44.753Z,31.46
2018-07-12T13:08:16.481Z,31.46
2018-07-12T13:10:46.881Z,31.50
2018-07-12T13:13:17.009Z,31.44
2018-07-12T13:15:46.935Z,31.31
2018-07-12T13:18:18.781Z,31.18
2018-07-12T13:20:49.296Z,31.11
2018-07-12T13:23:22.241Z,31.08
2018-07-12T13:25:52.696Z,31.26
2018-07-12T13:28:24.798Z,31.45
2018-07-12T13:30:55.609Z,31.74
2018-07-12T13:33:34.551Z,32.04
2018-07-12T13:36:05.072Z,32.30
2018-07-12T13:38:35.721Z,32.48
2018-07-12T13:41:08.333Z,32.52
2018-07-12T13:43:40.443Z,32.47
2018-07-12T13:46:11.180Z,32.43
2018-07-12T13:48:42.010Z,32.45
2018-07-12T13:51:14.006Z,32.44
2018-07-12T13:53:44.407Z,32.47
2018-07-12T13:56:15.339Z,32.56
2018-07-12T13:58:45.680Z,32.62
2018-07-12T14:01:15.295Z,32.69
2018-07-12T14:03:45.382Z,32.67
2018-07-12T14:06:17.113Z,32.67
2018-07-12T14:08:46.607Z,32.56
2018-07-12T14:11:17.328Z,32.45
2018-07-12T14:13:47.606Z,32.38
2018-07-12T14:16:17.012Z,32.26
2018-07-12T14:18:46.300Z,32.15
2018-07-12T14:21:15.737Z,32.09
2018-07-12T14:23:46.047Z,32.03
2018-07-12T14:26:17.818Z,31.97
2018-07-12T14:28:50.084Z,31.92
2018-07-12T14:31:20.194Z,31.90
2018-07-12T14:33:50.547Z,31.89
2018-07-12T14:36:22.067Z,31.84
2018-07-12T14:38:55.563Z,31.78
2018-07-12T14:41:27.322Z,31.76
2018-07-12T14:44:04.576Z,31.73
2018-07-12T14:46:38.116Z,31.70
2018-07-12T14:49:12.008Z,31.70
2018-07-12T14:51:43.533Z,31.68
2018-07-12T14:54:14.632Z,31.66
2018-07-12T14:56:43.800Z,31.63
2018-07-12T14:59:13.642Z,31.60
2018-07-12T15:01:43.705Z,31.61
2018-07-12T15:04:12.883Z,31.59
2018-07-12T15:06:42.707Z,31.61
2018-07-12T15:09:12.987Z,31.64
2018-07-12T15:11:42.186Z,31.65
2018-07-12T15:14:11.834Z,31.62
2018-07-12T15:16:41.325Z,31.56
2018-07-12T15:19:10.418Z,31.44
2018-07-12T15:21:39.903Z,31.25
2018-07-12T15:24:09.367Z,31.16
2018-07-12T15:26:39.997Z,31.07
2018-07-12T15:29:10.306Z,30.94
2018-07-12T15:31:41.746Z,30.86
2018-07-12T15:34:11.981Z,30.86
2018-07-12T15:36:42.404Z,30.89
2018-07-12T15:39:16.035Z,30.93
2018-07-12T15:41:47.186Z,30.98
2018-07-12T15:44:17.490Z,31.01
2018-07-12T15:46:47.651Z,31.07
2018-07-12T15:49:19.284Z,31.15
2018-07-12T15:51:49.551Z,31.17
2018-07-12T15:54:19.370Z,31.23
2018-07-12T15:56:49.183Z,31.26
2018-07-12T15:59:18.733Z,31.27
2018-07-12T16:01:48.856Z,31.26
2018-07-12T16:04:18.554Z,31.20
2018-07-12T16:06:48.360Z,31.13
2018-07-12T16:09:19.789Z,31.09
2018-07-12T16:11:49.887Z,31.04
2018-07-12T16:14:19.477Z,31.00
2018-07-12T16:16:52.981Z,30.99
2018-07-12T16:19:22.852Z,31.01
2018-07-12T16:21:53.684Z,31.00
2018-07-12T16:24:23.852Z,30.99
2018-07-12T16:26:53.348Z,30.96
2018-07-12T16:29:25.569Z,30.90
2018-07-12T16:31:56.081Z,30.83
2018-07-12T16:34:26.101Z,30.76
2018-07-12T16:36:55.960Z,30.71
2018-07-12T16:39:25.641Z,30.69
2018-07-12T16:41:55.564Z,30.70
2018-07-12T16:44:26.048Z,30.72
2018-07-12T16:46:56.166Z,30.70
2018-07-12T16:49:25.782Z,30.71
2018-07-12T16:51:58.167Z,30.73
2018-07-12T16:54:29.539Z,30.76
2018-07-12T16:56:59.749Z,30.79
2018-07-12T16:59:29.826Z,30.80
2018-07-12T17:01:59.731Z,30.78
2018-07-12T17:04:30.732Z,30.81
2018-07-12T17:07:00.691Z,30.84
2018-07-12T17:09:30.484Z,30.83
2018-07-12T17:11:59.963Z,30.78
2018-07-12T17:14:30.384Z,30.71
2018-07-12T17:17:00.844Z,30.59
2018-07-12T17:19:31.509Z,30.48
2018-07-12T17:22:02.327Z,30.36
2018-07-12T17:24:31.833Z,30.26
2018-07-12T17:27:01.225Z,30.16
2018-07-12T17:29:30.821Z,30.04
2018-07-12T17:32:01.050Z,29.89
2018-07-12T17:34:31.264Z,29.75
2018-07-12T17:37:01.009Z,29.62
2018-07-12T17:39:30.972Z,29.50
2018-07-12T17:42:02.701Z,29.38
2018-07-12T17:44:34.706Z,29.29
2018-07-12T17:47:05.677Z,29.21
2018-07-12T17:49:37.144Z,29.13
2018-07-12T17:52:11.029Z,29.06
2018-07-12T17:54:41.760Z,29.02
2018-07-12T17:57:11.336Z,28.98
2018-07-12T17:59:41.293Z,28.93
2018-07-12T18:02:11.749Z,28.87
2018-07-12T18:04:42.131Z,28.82
2018-07-12T18:07:12.656Z,28.79
2018-07-12T18:09:41.691Z,28.80
2018-07-12T18:12:12.016Z,28.80
2018-07-12T18:14:42.724Z,28.80
2018-07-12T18:17:15.896Z,28.78
2018-07-12T18:19:50.787Z,28.75
2018-07-12T18:22:20.616Z,28.72
2018-07-12T18:24:51.395Z,28.71
2018-07-12T18:27:22.124Z,28.70
2018-07-12T18:29:51.992Z,28.69
2018-07-12T18:32:22.263Z,28.66
2018-07-12T18:34:53.413Z,28.66
2018-07-12T18:37:25.738Z,28.62
2018-07-12T18:39:55.934Z,28.58
2018-07-12T18:42:25.833Z,28.53
2018-07-12T18:44:55.412Z,28.50
2018-07-12T18:47:25.459Z,28.44
2018-07-12T18:49:57.310Z,28.36
2018-07-12T18:52:26.877Z,28.30
2018-07-12T18:54:58.894Z,28.22
2018-07-12T18:57:29.353Z,28.17
2018-07-12T18:59:58.963Z,28.10
2018-07-12T19:02:28.885Z,28.04
2018-07-12T19:04:58.972Z,27.99
2018-07-12T19:07:28.084Z,27.94
2018-07-12T19:09:58.505Z,27.85
2018-07-12T19:12:29.122Z,27.77
2018-07-12T19:14:58.526Z,27.71
2018-07-12T19:17:27.745Z,27.66
2018-07-12T19:19:58.417Z,27.57
2018-07-12T19:22:28.525Z,27.50
2018-07-12T19:24:58.415Z,27.44
2018-07-12T19:27:28.390Z,27.35
2018-07-12T19:30:00.636Z,27.28
2018-07-12T19:32:30.581Z,27.20
2018-07-12T19:35:01.682Z,27.14
2018-07-12T19:37:31.566Z,27.06
2018-07-12T19:40:02.528Z,27.00
2018-07-12T19:42:32.590Z,26.91
2018-07-12T19:45:02.791Z,26.86
2018-07-12T19:47:33.028Z,26.80
2018-07-12T19:50:05.295Z,26.72
2018-07-12T19:52:35.952Z,26.67
2018-07-12T19:55:05.897Z,26.61
2018-07-12T19:57:37.159Z,26.54
2018-07-12T20:00:09.559Z,26.47
2018-07-12T20:02:39.284Z,26.40
2018-07-12T20:05:12.914Z,26.30
2018-07-12T20:07:42.909Z,26.22
2018-07-12T20:10:14.213Z,26.14
2018-07-12T20:12:44.157Z,26.05
2018-07-12T20:15:15.531Z,25.99
2018-07-12T20:17:45.757Z,25.92
2018-07-12T20:20:15.704Z,25.86
2018-07-12T20:22:45.691Z,25.80
2018-07-12T20:25:16.147Z,25.74
2018-07-12T20:27:48.571Z,25.68
2018-07-12T20:30:19.269Z,25.62
2018-07-12T20:32:49.220Z,25.57
2018-07-12T20:35:19.005Z,25.53
2018-07-12T20:37:49.440Z,25.48
2018-07-12T20:40:25.295Z,25.44
2018-07-12T20:42:56.214Z,25.37
2018-07-12T20:45:31.670Z,25.32
2018-07-12T20:48:02.273Z,25.27
2018-07-12T20:50:31.547Z,25.23
2018-07-12T20:53:02.346Z,25.19
2018-07-12T20:55:31.754Z,25.15
2018-07-12T20:58:03.611Z,25.10
2018-07-12T21:00:32.933Z,25.03
2018-07-12T21:03:03.496Z,24.98
2018-07-12T21:05:36.647Z,24.91
2018-07-12T21:08:08.766Z,24.84
2018-07-12T21:10:39.043Z,24.73
2018-07-12T21:13:09.219Z,24.62
2018-07-12T21:15:42.991Z,24.53
2018-07-12T21:18:15.298Z,24.44
2018-07-12T21:20:51.928Z,24.35
2018-07-12T21:23:22.131Z,24.28
2018-07-12T21:25:51.804Z,24.22
2018-07-12T21:28:21.115Z,24.17
2018-07-12T21:30:50.296Z,24.11
2018-07-12T21:33:19.440Z,24.07
2018-07-12T21:35:48.602Z,24.02
2018-07-12T21:38:18.891Z,23.99
2018-07-12T21:40:48.265Z,23.95
2018-07-12T21:43:18.128Z,23.92
2018-07-12T21:45:48.256Z,23.88
2018-07-12T21:48:17.452Z,23.85
2018-07-12T21:50:47.538Z,23.82
2018-07-12T21:53:16.702Z,23.77
2018-07-12T21:55:45.830Z,23.73
2018-07-12T21:58:15.298Z,23.72
2018-07-12T22:00:44.484Z,23.68
2018-07-12T22:03:13.854Z,24.08
2018-07-12T22:05:43.088Z,23.99
2018-07-12T22:08:13.970Z,23.85
2018-07-12T22:10:44.668Z,23.77
2018-07-12T22:13:14.881Z,23.72
2018-07-12T22:15:45.323Z,23.70
2018-07-12T22:18:16.053Z,23.68
2018-07-12T22:20:45.241Z,23.69
2018-07-12T22:23:14.471Z,23.68
2018-07-12T22:25:43.652Z,23.68
2018-07-12T22:28:13.665Z,23.65
2018-07-12T22:30:43.067Z,23.63
2018-07-12T22:33:12.409Z,23.60
2018-07-12T22:35:41.778Z,23.53
2018-07-12T22:38:10.708Z,23.50
2018-07-12T22:40:39.854Z,23.41
2018-07-12T22:43:09.842Z,23.33
2018-07-12T22:45:40.176Z,23.25
2018-07-12T22:48:09.543Z,23.15
2018-07-12T22:50:38.985Z,23.09
2018-07-12T22:53:09.122Z,23.04
2018-07-12T22:55:38.439Z,22.99
2018-07-12T22:58:08.460Z,22.96
2018-07-12T23:00:37.909Z,22.92
2018-07-12T23:03:07.106Z,22.90
2018-07-12T23:05:36.249Z,22.87
2018-07-12T23:08:06.115Z,22.84
2018-07-12T23:10:35.423Z,22.81
2018-07-12T23:13:04.683Z,22.79
2018-07-12T23:15:34.545Z,22.75
2018-07-12T23:18:04.800Z,22.72
2018-07-12T23:20:34.076Z,22.69
2018-07-12T23:23:03.300Z,22.65
2018-07-12T23:25:32.555Z,22.63
2018-07-12T23:28:01.808Z,22.58
2018-07-12T23:30:31.035Z,22.51
2018-07-12T23:33:00.281Z,22.48
2018-07-12T23:35:29.608Z,22.40
2018-07-12T23:37:58.916Z,22.31
2018-07-12T23:40:28.100Z,22.21
2018-07-12T23:42:57.732Z,22.09
2018-07-12T23:45:27.330Z,21.99
2018-07-12T23:47:56.740Z,21.91
2018-07-12T23:50:25.914Z,21.81
2018-07-12T23:52:55.155Z,21.75
2018-07-12T23:55:24.331Z,21.69
2018-07-12T23:57:53.462Z,21.65
